Hesperides — EBBW — position and weather

sailwx.info

Track history (hours):
 
Tides and Currents Weather Stations Pressure Air Temp Water Temp Dewpoint Dewpoint Depression Visibility Wind Speed Wind Dir Waves Ship Positions

Oceanographic research ship Hesperides (Spain)

Detailed information on ship capabilities available from University of Delaware's Ocean Information Center.

Last reported at 2017-Apr-09 08:19 UTC. Time now 2017-Apr-27 16:49 UTC.
Position S 55°02' W 066°43'.
Warning: this ship's position is 18 days out of date.

Length 82 m; draft 5.5 m.

Type: Ship. MMSI: 224886000.

Date/timePositionNaut miles runAvg speedWind from/ knotsBaromVisibWave heightAir tempDewpointWater temp
2017-Apr-09 08:19S 55°02' W 066°43'26 5.3
2017-Apr-09 03:24S 54°55' W 067°27'0 0.1
2017-Apr-08 22:46S 54°55' W 067°27'2 5.7
2017-Apr-08 22:20S 54°55' W 067°31'2 7.1
2017-Apr-08 22:01S 54°54' W 067°34'3 4.1
2017-Apr-08 21:22S 54°54' W 067°39'1 2.2
2017-Apr-08 21:00S 54°54' W 067°40'0 0.3
2017-Apr-08 20:30S 54°54' W 067°40'3 6.7
2017-Apr-08 20:00S 54°54' W 067°46'510.4
2017-Apr-08 19:30S 54°53' W 067°55'4 7.4
2017-Apr-08 19:00S 54°53' W 068°01'1 1.1
2017-Apr-08 18:30S 54°52' W 068°02'0 1.0
2017-Apr-08 18:01S 54°52' W 068°02'3 5.3
2017-Apr-08 17:30S 54°51' W 068°06'3 6.9
2017-Apr-08 17:01S 54°50' W 068°12'2 3.0
2017-Apr-08 16:30S 54°49' W 068°14'0 0.1
2017-Apr-08 16:01S 54°49' W 068°14'0 0.6
2017-Apr-08 15:30S 54°49' W 068°14'2 4.3
2017-Apr-08 15:01S 54°49' W 068°18'0 0.0
2017-Apr-08 14:01S 54°49' W 068°18'  
2017-Apr-04 13:37S 54°49' W 068°18'0 0.2
2017-Apr-04 13:31S 54°49' W 068°18'1 2.3
2017-Apr-04 13:01S 54°49' W 068°16'4 7.2
2017-Apr-04 12:31S 54°50' W 068°10'4 8.2
2017-Apr-04 12:01S 54°52' W 068°03'510.7
2017-Apr-04 11:30S 54°53' W 067°54'510.6
2017-Apr-04 11:01S 54°54' W 067°45'610.4
2017-Apr-04 10:26S 54°54' W 067°35'  
Track history (hours):
 
Tides and Currents Weather Stations Pressure Air Temp Water Temp Dewpoint Dewpoint Depression Visibility Wind Speed Wind Dir Waves Ship Positions

Oceanographic research ship Hesperides (Spain)

Detailed information on ship capabilities available from University of Delaware's Ocean Information Center.

Last reported at 2017-Apr-09 08:19 UTC. Time now 2017-Apr-27 16:49 UTC.
Position S 55°02' W 066°43'.
Warning: this ship's position is 18 days out of date.

Length 82 m; draft 5.5 m.

Type: Ship. MMSI: 224886000.

Date/timePositionNaut miles runAvg speedWind from/ knotsBaromVisibWave heightAir tempDewpointWater temp
2017-Apr-09 08:19S 55°02' W 066°43'26 5.3
2017-Apr-09 03:24S 54°55' W 067°27'0 0.1
2017-Apr-08 22:46S 54°55' W 067°27'2 5.7
2017-Apr-08 22:20S 54°55' W 067°31'2 7.1
2017-Apr-08 22:01S 54°54' W 067°34'3 4.1
2017-Apr-08 21:22S 54°54' W 067°39'1 2.2
2017-Apr-08 21:00S 54°54' W 067°40'0 0.3
2017-Apr-08 20:30S 54°54' W 067°40'3 6.7
2017-Apr-08 20:00S 54°54' W 067°46'510.4
2017-Apr-08 19:30S 54°53' W 067°55'4 7.4
2017-Apr-08 19:00S 54°53' W 068°01'1 1.1
2017-Apr-08 18:30S 54°52' W 068°02'0 1.0
2017-Apr-08 18:01S 54°52' W 068°02'3 5.3
2017-Apr-08 17:30S 54°51' W 068°06'3 6.9
2017-Apr-08 17:01S 54°50' W 068°12'2 3.0
2017-Apr-08 16:30S 54°49' W 068°14'0 0.1
2017-Apr-08 16:01S 54°49' W 068°14'0 0.6
2017-Apr-08 15:30S 54°49' W 068°14'2 4.3
2017-Apr-08 15:01S 54°49' W 068°18'0 0.0
2017-Apr-08 14:01S 54°49' W 068°18'  
2017-Apr-04 13:37S 54°49' W 068°18'0 0.2
2017-Apr-04 13:31S 54°49' W 068°18'1 2.3
2017-Apr-04 13:01S 54°49' W 068°16'4 7.2
2017-Apr-04 12:31S 54°50' W 068°10'4 8.2
2017-Apr-04 12:01S 54°52' W 068°03'510.7
2017-Apr-04 11:30S 54°53' W 067°54'510.6
2017-Apr-04 11:01S 54°54' W 067°45'610.4
2017-Apr-04 10:26S 54°54' W 067°35'  

Dump ship's entire track history